Time;durP1;ratioP1;P1;durP2;ratioP2;P2;SDS_P1;SDS_P2;PMS_P1;PMS_P2;Temp;Humidity;BMP_temperature;BMP_pressure;BME280_temperature;BME280_humidity;BME280_pressure;Samples;Min_cycle;Max_cycle;Signal;HPM_P1;HPM_P2
2023/05/29 00:01:59;;;;;;;36.60;27.17;;;;;;;;;;5022196;28;20136;-55
2023/05/29 00:04:25;;;;;;;32.03;27.30;;;;;;;;;;5022085;28;20080;-59
2023/05/29 00:06:51;;;;;;;31.17;26.25;;;460.80;2380.80;;;;;;5015946;28;20065;-60
2023/05/29 00:09:17;;;;;;;35.90;27.85;;;436.10;2355.20;;;;;;5015057;28;20053;-56
2023/05/29 00:11:43;;;;;;;33.08;27.52;;;436.00;2355.20;;;;;;5016614;28;20464;-61
2023/05/29 00:14:13;;;;;;;34.85;28.38;;;436.00;2355.20;;;;;;5014389;28;20028;-58
2023/05/29 00:16:39;;;;;;;30.83;26.23;;;436.00;2355.20;;;;;;5009319;28;20072;-61
2023/05/29 00:19:05;;;;;;;35.03;30.10;;;436.00;2355.20;;;;;;5013419;28;20125;-57
2023/05/29 00:21:31;;;;;;;32.00;27.85;;;435.90;2355.20;;;;;;5008961;28;20103;-56
2023/05/29 00:23:57;;;;;;;38.63;27.38;;;435.80;2355.20;;;;;;5008853;28;20072;-55
2023/05/29 00:26:23;;;;;;;44.97;28.48;;;435.80;2355.20;;;;;;5008815;28;20050;-55
2023/05/29 00:28:48;;;;;;;35.38;28.48;;;435.70;2355.20;;;;;;5012551;28;20022;-56
2023/05/29 00:31:14;;;;;;;38.75;29.95;;;435.70;2355.20;;;;;;5013142;28;20026;-55
2023/05/29 00:33:40;;;;;;;41.40;31.23;;;435.60;2355.20;;;;;;5019020;28;20476;-58
2023/05/29 00:36:05;;;;;;;40.67;31.80;;;435.70;2355.20;;;;;;5012800;28;20423;-61
2023/05/29 00:38:31;;;;;;;42.40;32.90;;;435.70;2355.20;;;;;;5012120;28;20081;-61
2023/05/29 00:40:58;;;;;;;34.80;30.20;;;435.80;2355.20;;;;;;5012403;28;20026;-60
2023/05/29 00:43:24;;;;;;;34.80;27.83;;;435.90;2355.20;;;;;;5012295;28;20435;-54
2023/05/29 00:45:50;;;;;;;31.48;27.13;;;435.90;2355.20;;;;;;5012603;28;20022;-55
2023/05/29 00:48:16;;;;;;;35.85;27.85;;;435.80;2355.20;;;;;;5012623;28;20423;-62
2023/05/29 00:50:44;;;;;;;39.58;29.35;;;435.90;2355.20;;;;;;5012137;28;20396;-55
2023/05/29 00:53:10;;;;;;;35.67;29.40;;;435.90;2355.20;;;;;;5012156;28;20087;-54
2023/05/29 00:55:36;;;;;;;42.50;31.35;;;435.80;2355.20;;;;;;5027823;28;20032;-62
2023/05/29 00:58:02;;;;;;;43.20;31.73;;;435.70;2355.20;;;;;;5031826;28;20025;-55
2023/05/29 01:00:30;;;;;;;39.58;29.88;;;435.70;2355.20;;;;;;5031882;28;20033;-55
2023/05/29 01:02:58;;;;;;;42.92;30.80;;;435.60;2355.20;;;;;;5032157;28;20045;-62
2023/05/29 01:05:23;;;;;;;42.70;32.47;;;435.50;1971.20;;;;;;5032091;28;20414;-56
2023/05/29 01:07:50;;;;;;;48.13;32.42;;;435.50;2355.20;;;;;;5031788;28;20025;-55
2023/05/29 01:10:17;;;;;;;36.00;28.48;;;435.40;2355.20;;;;;;5031619;28;20056;-56
2023/05/29 01:13:20;;;;;;;42.65;32.50;;;435.40;2355.20;;;;;;5031509;28;20036;-57
2023/05/29 01:16:06;;;;;;;46.35;32.25;;;435.50;2355.20;;;;;;5029478;28;20030;-53
2023/05/29 01:18:52;;;;;;;44.05;31.42;;;435.50;2355.20;;;;;;5028901;28;20045;-62
2023/05/29 01:21:43;;;;;;;40.42;31.77;;;435.60;2355.20;;;;;;5029598;28;20025;-55
2023/05/29 01:24:30;;;;;;;45.28;33.35;;;435.30;2176.00;;;;;;5017557;28;20399;-59
2023/05/29 01:27:01;;;;;;;60.03;37.95;;;435.30;2355.20;;;;;;5028956;28;20025;-62
2023/05/29 01:29:31;;;;;;;110.57;45.28;;;435.30;2355.20;;;;;;5029094;28;20063;-62
2023/05/29 01:31:58;;;;;;;130.77;48.42;;;435.20;2355.20;;;;;;5029030;28;20116;-55
2023/05/29 01:34:24;;;;;;;93.47;42.95;;;410.50;2355.20;;;;;;5029185;28;20131;-61
2023/05/29 01:36:49;;;;;;;68.70;38.58;;;410.40;2355.20;;;;;;5028844;28;20519;-63
2023/05/29 01:39:16;;;;;;;49.38;34.33;;;410.30;2355.20;;;;;;5028025;28;20183;-60
2023/05/29 01:41:43;;;;;;;48.65;34.17;;;410.20;2355.20;;;;;;5028513;28;20071;-62
2023/05/29 01:44:10;;;;;;;44.63;30.67;;;410.10;2355.20;;;;;;5028627;28;20076;-55
2023/05/29 01:46:40;;;;;;;42.90;33.67;;;410.10;2355.20;;;;;;5028783;28;20017;-55
2023/05/29 01:49:07;;;;;;;43.70;31.58;;;410.00;2355.20;;;;;;5024717;28;20096;-55
2023/05/29 01:51:32;;;;;;;42.17;31.15;;;409.90;2355.20;;;;;;5031058;28;20112;-54
2023/05/29 01:54:00;;;;;;;48.60;33.35;;;410.00;2355.20;;;;;;5030515;28;20159;-55
2023/05/29 01:56:27;;;;;;;50.10;34.70;;;409.90;2355.20;;;;;;5031051;28;20468;-54
2023/05/29 01:58:56;;;;;;;53.75;36.78;;;410.00;2355.20;;;;;;5030778;28;20022;-55
2023/05/29 02:01:23;;;;;;;46.17;34.67;;;409.90;2355.20;;;;;;5030976;28;20029;-55
2023/05/29 02:03:49;;;;;;;53.38;36.45;;;409.90;2355.20;;;;;;5030367;28;20037;-55
2023/05/29 02:06:15;;;;;;;41.25;30.05;;;409.80;2355.20;;;;;;5030745;28;20026;-62
2023/05/29 02:08:41;;;;;;;40.75;30.15;;;409.70;2355.20;;;;;;5030338;28;20041;-60
2023/05/29 02:11:06;;;;;;;40.22;29.75;;;409.70;2355.20;;;;;;5030739;28;20105;-56
2023/05/29 02:13:32;;;;;;;39.38;29.48;;;409.70;2355.20;;;;;;5030682;28;20112;-62
2023/05/29 02:15:58;;;;;;;43.72;30.58;;;409.60;2355.20;;;;;;5030648;28;20033;-54
2023/05/29 02:18:24;;;;;;;40.17;29.83;;;409.70;2355.20;;;;;;5030546;28;20029;-55
2023/05/29 02:20:50;;;;;;;42.33;29.10;;;409.70;2304.00;;;;;;5030842;28;20078;-56
2023/05/29 02:23:15;;;;;;;40.63;31.38;;;409.80;2355.20;;;;;;5030285;28;20044;-61
2023/05/29 02:25:41;;;;;;;41.88;30.20;;;409.90;2355.20;;;;;;5030451;28;20455;-62
2023/05/29 02:28:07;;;;;;;38.05;28.45;;;409.90;2355.20;;;;;;5030392;28;20033;-56
2023/05/29 02:30:33;;;;;;;43.40;32.72;;;409.90;2355.20;;;;;;5030696;28;20478;-55
2023/05/29 02:32:59;;;;;;;39.72;30.00;;;409.80;2355.20;;;;;;5030241;28;20021;-55
2023/05/29 02:35:25;;;;;;;37.58;29.35;;;409.70;2355.20;;;;;;5030371;28;20037;-55
2023/05/29 02:37:51;;;;;;;35.88;27.98;;;384.90;2329.60;;;;;;5030030;28;20033;-61
2023/05/29 02:40:18;;;;;;;36.05;28.08;;;384.70;2329.60;;;;;;5030377;28;20033;-55
2023/05/29 02:42:44;;;;;;;38.75;29.80;;;384.60;2329.60;;;;;;5030091;28;20048;-60
2023/05/29 02:45:11;;;;;;;40.28;31.20;;;384.60;2329.60;;;;;;5030162;28;20061;-63
2023/05/29 02:47:37;;;;;;;37.55;29.60;;;384.60;2329.60;;;;;;5030010;28;20393;-56
2023/05/29 02:50:04;;;;;;;39.90;28.42;;;384.50;2329.60;;;;;;5029240;28;20053;-55
2023/05/29 02:52:31;;;;;;;35.13;25.92;;;384.50;2329.60;;;;;;5029621;28;20076;-55
2023/05/29 02:54:58;;;;;;;36.15;28.60;;;384.60;2329.60;;;;;;5029928;28;20033;-54
2023/05/29 02:57:24;;;;;;;33.45;27.15;;;384.60;2329.60;;;;;;5029663;28;20031;-54
2023/05/29 02:59:51;;;;;;;37.30;28.40;;;384.70;2329.60;;;;;;5029771;28;20116;-62
2023/05/29 03:02:20;;;;;;;35.90;28.90;;;384.70;2329.60;;;;;;5029673;28;20021;-61
2023/05/29 03:04:45;;;;;;;32.97;26.17;;;384.60;2329.60;;;;;;5029829;28;20048;-56
2023/05/29 03:07:12;;;;;;;38.15;29.23;;;384.60;2329.60;;;;;;5029365;28;20460;-55
2023/05/29 03:09:38;;;;;;;35.47;29.30;;;384.70;2329.60;;;;;;5029429;28;20022;-55
2023/05/29 03:12:04;;;;;;;38.50;29.20;;;384.80;2329.60;;;;;;5029433;28;20152;-55
2023/05/29 03:14:35;;;;;;;35.58;26.80;;;384.80;2329.60;;;;;;5029294;28;20029;-60
2023/05/29 03:17:04;;;;;;;33.92;28.20;;;384.90;2329.60;;;;;;5029341;28;20029;-54
2023/05/29 03:19:29;;;;;;;38.85;26.95;;;384.80;2329.60;;;;;;5029238;28;20032;-54
2023/05/29 03:21:55;;;;;;;40.35;28.83;;;384.90;2329.60;;;;;;5029560;28;20022;-59
2023/05/29 03:24:21;;;;;;;36.80;28.73;;;409.60;2355.20;;;;;;5029001;28;20038;-61
2023/05/29 03:26:46;;;;;;;35.45;26.35;;;409.70;2355.20;;;;;;5029289;28;20025;-55
2023/05/29 03:29:12;;;;;;;32.03;26.08;;;409.70;2355.20;;;;;;5029182;28;20030;-54
2023/05/29 03:31:38;;;;;;;34.50;27.67;;;409.70;2355.20;;;;;;5029197;28;20018;-61
2023/05/29 03:34:03;;;;;;;29.92;23.40;;;409.90;2355.20;;;;;;5029545;28;20036;-55
2023/05/29 03:36:29;;;;;;;28.80;24.42;;;410.00;2355.20;;;;;;5028755;28;20483;-54
2023/05/29 03:38:55;;;;;;;32.33;24.90;;;410.10;2355.20;;;;;;5029026;28;20092;-55
2023/05/29 03:41:20;;;;;;;27.42;24.48;;;410.20;2355.20;;;;;;5028953;28;20427;-58
2023/05/29 03:43:46;;;;;;;31.45;25.52;;;410.20;2355.20;;;;;;5029274;28;20735;-60
2023/05/29 03:46:12;;;;;;;31.33;24.30;;;410.30;2355.20;;;;;;5029297;28;20499;-62
2023/05/29 03:48:38;;;;;;;29.83;22.58;;;410.50;2355.20;;;;;;5029389;28;20060;-57
2023/05/29 03:51:06;;;;;;;26.40;22.15;;;435.20;2355.20;;;;;;5029248;28;20582;-62
2023/05/29 03:53:32;;;;;;;25.17;22.48;;;435.20;2355.20;;;;;;5028853;28;20077;-55
2023/05/29 03:55:57;;;;;;;30.75;22.83;;;435.30;2355.20;;;;;;5028706;28;20104;-56
2023/05/29 03:58:23;;;;;;;25.83;21.65;;;435.20;2355.20;;;;;;5028856;28;20030;-55
2023/05/29 04:00:49;;;;;;;25.77;21.83;;;435.30;2355.20;;;;;;5029939;28;20037;-55
2023/05/29 04:03:14;;;;;;;27.95;22.60;;;435.20;2355.20;;;;;;5033262;28;20544;-55
2023/05/29 04:05:40;;;;;;;23.48;20.63;;;435.30;2355.20;;;;;;5032707;28;20026;-55
2023/05/29 04:08:08;;;;;;;23.45;20.05;;;435.40;2355.20;;;;;;5032982;28;20073;-54
2023/05/29 04:10:34;;;;;;;27.02;21.13;;;435.50;2355.20;;;;;;5032726;28;20025;-55
2023/05/29 04:13:00;;;;;;;27.50;21.30;;;435.50;2355.20;;;;;;5032486;28;20030;-55
2023/05/29 04:15:27;;;;;;;31.17;22.10;;;435.30;2355.20;;;;;;5032964;28;20125;-55
2023/05/29 04:17:54;;;;;;;27.05;21.83;;;435.20;2355.20;;;;;;5032984;28;20041;-61
2023/05/29 04:20:20;;;;;;;25.02;20.77;;;435.20;2355.20;;;;;;5032640;28;20104;-55
2023/05/29 04:22:46;;;;;;;27.88;22.33;;;435.20;2355.20;;;;;;5032724;28;20398;-56
2023/05/29 04:25:11;;;;;;;27.25;23.00;;;410.50;2355.20;;;;;;5032665;28;20017;-55
2023/05/29 04:27:37;;;;;;;25.85;22.05;;;410.50;2355.20;;;;;;5032791;28;20030;-57
2023/05/29 04:30:07;;;;;;;25.77;22.80;;;410.50;2355.20;;;;;;5032328;28;20021;-55
2023/05/29 04:32:33;;;;;;;26.52;22.10;;;435.20;2355.20;;;;;;5032657;28;20072;-54
2023/05/29 04:35:02;;;;;;;27.33;22.95;;;435.30;2355.20;;;;;;5032587;28;20053;-55
2023/05/29 04:37:29;;;;;;;28.90;23.10;;;435.50;2355.20;;;;;;5032306;28;20029;-55
2023/05/29 04:39:58;;;;;;;26.88;22.02;;;435.60;2355.20;;;;;;5032059;28;20103;-59
2023/05/29 04:42:24;;;;;;;27.23;22.38;;;435.50;2355.20;;;;;;5032256;28;20095;-55
2023/05/29 04:44:54;;;;;;;28.17;22.48;;;435.40;2355.20;;;;;;5032292;28;20109;-56
2023/05/29 04:47:20;;;;;;;24.70;20.83;;;435.60;2355.20;;;;;;5032275;28;20438;-55
2023/05/29 04:49:48;;;;;;;26.90;22.10;;;435.30;2355.20;;;;;;5032132;28;20030;-59
2023/05/29 04:52:15;;;;;;;31.58;23.52;;;435.20;2355.20;;;;;;5032449;28;20014;-55
2023/05/29 04:54:41;;;;;;;25.90;21.48;;;410.50;2355.20;;;;;;5018816;28;20022;-55
2023/05/29 04:57:06;;;;;;;26.83;21.88;;;435.20;2355.20;;;;;;5032297;28;20112;-57
2023/05/29 04:59:32;;;;;;;28.65;21.77;;;435.20;2355.20;;;;;;5032099;28;20036;-62
2023/05/29 05:01:58;;;;;;;24.65;22.00;;;435.30;2355.20;;;;;;5032176;28;20357;-60
2023/05/29 05:04:23;;;;;;;24.55;20.98;;;435.40;2355.20;;;;;;5031779;28;20037;-55
2023/05/29 05:06:49;;;;;;;26.50;20.73;;;435.70;2355.20;;;;;;5031755;28;20026;-62
2023/05/29 05:09:15;;;;;;;26.00;21.27;;;435.70;2355.20;;;;;;5024824;28;20042;-57
2023/05/29 05:11:41;;;;;;;24.75;19.95;;;435.70;2355.20;;;;;;5031404;28;20160;-62
2023/05/29 05:14:06;;;;;;;24.08;21.48;;;435.90;2355.20;;;;;;5030625;28;20087;-55
2023/05/29 05:16:33;;;;;;;26.63;20.30;;;436.00;2355.20;;;;;;5031657;28;20482;-61
2023/05/29 05:18:58;;;;;;;23.85;20.15;;;436.10;2355.20;;;;;;5031397;28;20037;-55
2023/05/29 05:21:24;;;;;;;27.42;19.73;;;461.00;2380.80;;;;;;5031932;28;20510;-62
2023/05/29 05:23:50;;;;;;;25.38;21.15;;;461.20;2380.80;;;;;;5031085;28;20427;-55
2023/05/29 05:26:15;;;;;;;23.05;19.90;;;461.40;2380.80;;;;;;5031764;28;20030;-61
2023/05/29 05:28:41;;;;;;;21.90;19.67;;;486.50;2380.80;;;;;;5031282;28;20483;-61
2023/05/29 05:31:07;;;;;;;23.70;18.83;;;487.30;2380.80;;;;;;5031616;28;20609;-63
2023/05/29 05:33:33;;;;;;;19.88;17.77;;;564.10;2432.00;;;;;;5031116;28;20028;-62
2023/05/29 05:35:58;;;;;;;19.25;16.48;;;589.70;2432.00;;;;;;5031033;28;20037;-55
2023/05/29 05:38:24;;;;;;;19.80;17.75;;;615.10;2432.00;;;;;;5031102;28;20049;-56
2023/05/29 05:40:50;;;;;;;19.67;17.67;;;640.00;2432.00;;;;;;5031273;28;20037;-56
2023/05/29 05:43:15;;;;;;;21.30;19.00;;;615.00;2432.00;;;;;;5030767;28;20030;-60
2023/05/29 05:45:42;;;;;;;20.42;18.05;;;589.50;2432.00;;;;;;5030982;28;20057;-55
2023/05/29 05:48:08;;;;;;;20.00;17.90;;;564.10;2432.00;;;;;;5030988;28;20113;-55
2023/05/29 05:50:34;;;;;;;23.27;19.92;;;563.70;2432.00;;;;;;5031262;28;20025;-62
2023/05/29 05:53:00;;;;;;;22.88;20.08;;;563.40;2432.00;;;;;;5030855;28;20022;-61
2023/05/29 05:55:27;;;;;;;22.67;18.70;;;538.50;2406.40;;;;;;5030798;28;20022;-62
2023/05/29 05:57:53;;;;;;;22.50;19.60;;;538.40;2406.40;;;;;;5017641;28;20418;-55
2023/05/29 06:00:19;;;;;;;20.05;17.98;;;538.20;2406.40;;;;;;5030715;28;20053;-62
2023/05/29 06:02:45;;;;;;;22.60;19.98;;;538.10;2406.40;;;;;;5030638;28;20403;-55
2023/05/29 06:05:11;;;;;;;23.52;20.17;;;538.20;2406.40;;;;;;5030605;28;20487;-57
2023/05/29 06:07:38;;;;;;;21.42;19.20;;;538.00;2406.40;;;;;;5024486;28;20189;-58
2023/05/29 06:10:04;;;;;;;24.30;21.67;;;537.70;2406.40;;;;;;5023632;28;20018;-60
2023/05/29 06:12:30;;;;;;;25.25;22.20;;;512.90;2380.80;;;;;;5030088;28;20022;-57
2023/05/29 06:14:55;;;;;;;26.38;23.58;;;537.60;2406.40;;;;;;5030773;28;20035;-55
2023/05/29 06:17:22;;;;;;;27.77;24.10;;;537.70;2406.40;;;;;;5030471;28;20028;-55
2023/05/29 06:19:48;;;;;;;26.98;23.25;;;537.70;2406.40;;;;;;5030901;28;20056;-55
2023/05/29 06:22:17;;;;;;;28.33;22.33;;;537.80;2406.40;;;;;;5030439;28;20054;-55
2023/05/29 06:24:43;;;;;;;28.65;21.00;;;537.80;2406.40;;;;;;5029875;28;20087;-55
2023/05/29 06:27:09;;;;;;;23.90;19.80;;;537.80;2406.40;;;;;;5030120;28;20017;-55
2023/05/29 06:29:35;;;;;;;26.63;21.73;;;537.90;2406.40;;;;;;5030361;28;20055;-63
2023/05/29 06:32:00;;;;;;;26.02;20.45;;;538.00;2406.40;;;;;;5030100;28;20427;-59
2023/05/29 06:34:26;;;;;;;25.35;22.33;;;537.90;2406.40;;;;;;5030363;28;20101;-61
2023/05/29 06:36:52;;;;;;;25.52;22.83;;;538.00;2406.40;;;;;;5029945;28;20057;-56
2023/05/29 06:39:19;;;;;;;24.85;20.75;;;538.20;2406.40;;;;;;5029991;28;20542;-62
2023/05/29 06:41:46;;;;;;;26.08;22.60;;;538.20;2406.40;;;;;;5030227;28;20040;-55
2023/05/29 06:44:11;;;;;;;24.10;19.77;;;538.50;2406.40;;;;;;5029615;28;20044;-61
2023/05/29 06:46:37;;;;;;;22.98;19.42;;;563.20;2432.00;;;;;;5030498;28;20014;-61
2023/05/29 06:49:03;;;;;;;20.88;18.77;;;563.40;2432.00;;;;;;5029931;28;20060;-62
2023/05/29 06:51:28;;;;;;;20.52;18.48;;;563.40;2432.00;;;;;;5029863;28;20045;-56
2023/05/29 06:53:54;;;;;;;24.75;20.42;;;563.50;2432.00;;;;;;5029637;28;20031;-58
2023/05/29 06:56:20;;;;;;;21.30;18.67;;;563.70;2432.00;;;;;;5016816;28;20053;-59
2023/05/29 06:58:46;;;;;;;22.48;17.67;;;563.60;2432.00;;;;;;5029938;28;20025;-56
2023/05/29 07:01:12;;;;;;;18.40;16.45;;;563.50;2432.00;;;;;;5029765;28;20044;-56
2023/05/29 07:03:38;;;;;;;17.77;15.77;;;563.80;2432.00;;;;;;5029727;28;20033;-60
2023/05/29 07:06:04;;;;;;;18.05;16.25;;;564.10;2432.00;;;;;;5029922;28;20379;-57
2023/05/29 07:08:30;;;;;;;19.23;16.63;;;589.00;2432.00;;;;;;5029434;28;20080;-65
2023/05/29 07:10:55;;;;;;;18.42;15.75;;;589.20;2432.00;;;;;;5029662;28;20467;-59
2023/05/29 07:13:21;;;;;;;17.77;16.05;;;589.30;2432.00;;;;;;5019433;28;20380;-64
2023/05/29 07:15:48;;;;;;;17.83;15.38;;;589.40;2432.00;;;;;;5017805;28;20468;-57
2023/05/29 07:18:14;;;;;;;16.58;14.35;;;589.40;2432.00;;;;;;5023453;28;20543;-58
2023/05/29 07:20:40;;;;;;;16.73;14.25;;;589.50;2432.00;;;;;;5009522;28;20101;-57
2023/05/29 07:23:06;;;;;;;14.85;13.35;;;589.40;2432.00;;;;;;5024763;28;20029;-57
2023/05/29 07:25:32;;;;;;;16.42;14.85;;;589.40;2432.00;;;;;;5015864;28;20065;-65
2023/05/29 07:27:58;;;;;;;14.85;13.38;;;614.60;2432.00;;;;;;5029116;28;20380;-57
2023/05/29 07:30:24;;;;;;;15.55;13.85;;;615.00;2432.00;;;;;;5029150;28;20032;-57
2023/05/29 07:32:49;;;;;;;15.57;12.82;;;640.00;2432.00;;;;;;5029476;28;20029;-66
2023/05/29 07:35:15;;;;;;;14.25;12.50;;;640.50;2432.00;;;;;;5028867;28;20403;-61
2023/05/29 07:37:41;;;;;;;15.15;12.77;;;640.50;2406.40;;;;;;5028379;28;20058;-69
2023/05/29 07:40:07;;;;;;;12.77;10.93;;;640.90;2432.00;;;;;;5025711;28;20057;-57
2023/05/29 07:42:33;;;;;;;13.07;11.75;;;666.40;2252.80;;;;;;5028486;28;20075;-56
2023/05/29 07:45:00;;;;;;;12.75;11.05;;;666.40;2227.20;;;;;;5028450;28;20036;-70
2023/05/29 07:47:26;;;;;;;12.70;11.50;;;666.50;2227.20;;;;;;5028567;28;20080;-56
2023/05/29 07:49:52;;;;;;;13.88;11.85;;;666.40;2201.60;;;;;;5028866;28;20029;-57
2023/05/29 07:52:18;;;;;;;18.98;12.32;;;666.10;2227.20;;;;;;5028436;28;20434;-61
2023/05/29 07:54:44;;;;;;;14.93;13.30;;;666.10;2201.60;;;;;;5028868;28;20029;-57
2023/05/29 07:57:10;;;;;;;15.93;12.32;;;665.90;2201.60;;;;;;5029142;28;20034;-57
2023/05/29 07:59:36;;;;;;;11.82;10.57;;;666.10;2278.40;;;;;;5028842;28;20021;-57
2023/05/29 08:02:03;;;;;;;14.73;13.15;;;691.30;2201.60;;;;;;5028897;28;20494;-57
2023/05/29 08:04:30;;;;;;;14.75;13.00;;;640.70;2227.20;;;;;;5028977;28;20136;-58
2023/05/29 08:06:56;;;;;;;16.25;12.73;;;666.50;2201.60;;;;;;5028968;28;20036;-57
2023/05/29 08:09:22;;;;;;;17.33;13.70;;;;;;;;;;5028593;28;20460;-57
2023/05/29 08:11:48;;;;;;;15.15;13.40;;;;;;;;;;5029117;28;20025;-57
2023/05/29 08:14:15;;;;;;;16.13;14.52;;;;;;;;;;5029049;28;20021;-58
2023/05/29 08:16:41;;;;;;;16.70;12.65;;;716.90;2073.60;;;;;;5028605;28;20781;-67
2023/05/29 08:19:07;;;;;;;15.10;13.48;;;716.90;2073.60;;;;;;5029075;28;20025;-57
2023/05/29 08:21:33;;;;;;;15.20;13.65;;;717.00;2073.60;;;;;;5029013;28;20123;-57
2023/05/29 08:23:59;;;;;;;15.40;13.57;;;691.90;2073.60;;;;;;5028406;28;20391;-58
2023/05/29 08:26:25;;;;;;;16.27;14.57;;;716.80;2073.60;;;;;;5028668;28;20021;-57
2023/05/29 08:28:51;;;;;;;14.95;13.40;;;691.50;2099.20;;;;;;5028663;28;20032;-57
2023/05/29 08:31:17;;;;;;;17.60;15.82;;;691.70;2124.80;;;;;;5028533;28;20029;-57
2023/05/29 08:33:43;;;;;;;17.67;15.98;;;691.20;2176.00;;;;;;5028704;28;20018;-64
2023/05/29 08:36:08;;;;;;;17.55;15.80;;;691.20;2150.40;;;;;;5028599;28;20029;-57
2023/05/29 08:38:35;;;;;;;16.83;15.00;;;666.20;2227.20;;;;;;5028491;28;20045;-57
2023/05/29 08:41:02;;;;;;;16.90;15.20;;;666.40;2201.60;;;;;;5028367;28;20025;-57
2023/05/29 08:43:31;;;;;;;18.95;16.95;;;666.30;2201.60;;;;;;5028511;28;20025;-57
2023/05/29 08:46:02;;;;;;;17.90;16.10;;;666.20;2176.00;;;;;;5028716;28;20104;-64
2023/05/29 08:48:30;;;;;;;18.60;16.45;;;666.10;2227.20;;;;;;5030064;28;20078;-56
2023/05/29 08:50:58;;;;;;;16.73;15.02;;;666.00;2252.80;;;;;;5032402;28;21251;-56
2023/05/29 08:53:25;;;;;;;17.33;15.63;;;666.00;2227.20;;;;;;5032064;28;20472;-54
2023/05/29 08:55:52;;;;;;;19.33;16.17;;;665.90;2227.20;;;;;;5032057;28;20029;-58
2023/05/29 08:58:21;;;;;;;21.48;15.63;;;665.70;2252.80;;;;;;5032060;28;20028;-58
2023/05/29 09:00:49;;;;;;;18.50;16.35;;;640.50;2304.00;;;;;;5031519;28;20484;-57
2023/05/29 09:03:15;;;;;;;18.30;16.38;;;615.20;2406.40;;;;;;5032217;28;20037;-55
2023/05/29 09:05:41;;;;;;;19.05;16.80;;;640.00;2380.80;;;;;;5031528;28;20018;-56
2023/05/29 09:08:11;;;;;;;18.45;15.82;;;614.90;2406.40;;;;;;5032154;28;20389;-56
2023/05/29 09:10:41;;;;;;;18.70;16.13;;;614.80;2432.00;;;;;;5031678;28;20066;-56
2023/05/29 09:13:09;;;;;;;16.65;15.00;;;615.00;2432.00;;;;;;5031989;28;20053;-59
2023/05/29 09:15:35;;;;;;;18.30;16.23;;;615.10;2432.00;;;;;;5032010;28;20021;-65
2023/05/29 09:18:00;;;;;;;16.70;14.50;;;615.20;2355.20;;;;;;5027813;28;20467;-71
2023/05/29 09:20:27;;;;;;;16.17;13.77;;;640.10;2329.60;;;;;;5031915;28;20109;-56
2023/05/29 09:22:56;;;;;;;16.58;14.88;;;640.40;2278.40;;;;;;5019179;28;20032;-57
2023/05/29 09:25:27;;;;;;;15.23;13.63;;;615.20;2355.20;;;;;;5024665;28;20025;-55
2023/05/29 09:27:57;;;;;;;16.92;12.77;;;614.90;2355.20;;;;;;5011731;28;20157;-57
2023/05/29 09:30:35;;;;;;;15.20;13.70;;;615.00;2304.00;;;;;;5011759;28;20021;-57
2023/05/29 09:33:01;;;;;;;17.65;14.98;;;640.50;2278.40;;;;;;5011542;28;20064;-59
2023/05/29 09:35:52;;;;;;;16.90;15.18;;;640.70;2252.80;;;;;;5013884;28;20407;-55
2023/05/29 09:38:19;;;;;;;16.85;14.75;;;640.70;2304.00;;;;;;5030999;28;20057;-55
2023/05/29 09:40:46;;;;;;;15.75;14.10;;;640.90;2252.80;;;;;;5031195;28;20467;-56
2023/05/29 09:43:16;;;;;;;15.52;14.02;;;665.70;2278.40;;;;;;5031199;28;20048;-55
2023/05/29 09:45:46;;;;;;;15.55;13.93;;;640.60;2252.80;;;;;;5031079;28;20026;-56
2023/05/29 09:48:16;;;;;;;20.00;15.30;;;640.40;2252.80;;;;;;5013643;28;20029;-71
2023/05/29 09:50:47;;;;;;;16.10;14.50;;;615.30;2304.00;;;;;;5011254;28;20096;-56
2023/05/29 09:53:21;;;;;;;16.27;14.50;;;640.60;2278.40;;;;;;5010960;28;20018;-64
2023/05/29 09:55:47;;;;;;;18.95;17.00;;;665.60;2278.40;;;;;;5012420;28;20030;-71
2023/05/29 09:58:20;;;;;;;28.83;15.02;;;665.60;2329.60;;;;;;5022748;28;20055;-67
2023/05/29 10:00:47;;;;;;;17.53;14.63;;;640.90;2227.20;;;;;;5026735;28;20029;-61
2023/05/29 10:03:13;;;;;;;19.85;14.60;;;665.90;2355.20;;;;;;5014062;28;20073;-71
2023/05/29 10:05:43;;;;;;;14.85;13.10;;;666.00;2201.60;;;;;;5021233;28;20024;-57
2023/05/29 10:08:12;;;;;;;16.85;14.30;;;666.20;2201.60;;;;;;5030814;28;20028;-57
2023/05/29 10:10:42;;;;;;;19.88;14.32;;;666.10;2329.60;;;;;;5018016;28;20624;-64
2023/05/29 10:13:14;;;;;;;18.17;16.38;;;666.10;2329.60;;;;;;5017073;28;20162;-56
2023/05/29 10:15:42;;;;;;;24.23;17.50;;;666.50;2355.20;;;;;;5030454;28;20022;-57
2023/05/29 10:18:22;;;;;;;17.15;15.13;;;691.30;2304.00;;;;;;5025714;28;20491;-57
2023/05/29 10:20:55;;;;;;;14.95;13.10;;;691.30;2176.00;;;;;;5010951;28;20022;-56
2023/05/29 10:23:25;;;;;;;14.55;13.05;;;691.40;2201.60;;;;;;5010642;28;20045;-56
2023/05/29 10:25:59;;;;;;;15.40;12.63;;;666.00;2150.40;;;;;;5010700;28;20026;-58
2023/05/29 10:28:25;;;;;;;14.05;12.75;;;665.90;2201.60;;;;;;5021415;28;20040;-57
2023/05/29 10:30:55;;;;;;;13.63;12.25;;;666.30;2176.00;;;;;;5023583;28;20476;-57
2023/05/29 10:33:29;;;;;;;15.02;13.20;;;665.90;2201.60;;;;;;5030142;28;20075;-57
2023/05/29 10:36:21;;;;;;;13.43;12.02;;;665.90;2201.60;;;;;;5030110;28;20255;-57
2023/05/29 10:38:48;;;;;;;14.40;12.30;;;665.80;2176.00;;;;;;5016106;28;20063;-57
2023/05/29 10:41:26;;;;;;;13.77;11.90;;;665.70;2176.00;;;;;;5030213;28;20060;-58
2023/05/29 10:43:59;;;;;;;14.63;13.10;;;640.60;2176.00;;;;;;5030116;28;20049;-56
2023/05/29 10:47:00;;;;;;;15.00;12.82;;;640.80;2201.60;;;;;;5030224;28;20476;-57
2023/05/29 10:49:26;;;;;;;14.30;12.75;;;665.60;2252.80;;;;;;5027590;28;20167;-57
2023/05/29 10:51:52;;;;;;;13.35;11.77;;;640.90;2176.00;;;;;;5027369;28;20045;-58
2023/05/29 10:54:25;;;;;;;13.02;11.73;;;666.00;2201.60;;;;;;5027486;28;20435;-57
2023/05/29 10:57:00;;;;;;;14.52;11.27;;;665.80;2201.60;;;;;;5027345;28;20044;-57
2023/05/29 10:59:27;;;;;;;13.98;12.57;;;640.90;2176.00;;;;;;5027431;28;20037;-57
2023/05/29 11:01:54;;;;;;;12.98;11.65;;;666.20;2176.00;;;;;;5027480;28;20030;-56
2023/05/29 11:04:20;;;;;;;11.77;10.63;;;691.40;2099.20;;;;;;5026688;28;20065;-57
2023/05/29 11:06:47;;;;;;;11.77;10.25;;;691.80;2048.00;;;;;;5026762;28;20037;-57
2023/05/29 11:09:30;;;;;;;14.00;11.68;;;691.90;2099.20;;;;;;5026976;28;20532;-62
2023/05/29 11:12:35;;;;;;;12.27;10.95;;;691.80;2022.40;;;;;;5026475;28;20581;-57
2023/05/29 11:15:06;;;;;;;11.52;9.88;;;666.40;2073.60;;;;;;5026701;28;20033;-57
2023/05/29 11:17:39;;;;;;;12.10;10.20;;;666.30;2099.20;;;;;;5027057;28;20028;-57
2023/05/29 11:20:07;;;;;;;12.30;9.82;;;666.10;2073.60;;;;;;5026703;28;20052;-57
2023/05/29 11:22:48;;;;;;;12.18;10.05;;;666.20;2124.80;;;;;;5026888;28;20075;-57
2023/05/29 11:25:15;;;;;;;13.45;9.18;;;666.10;2073.60;;;;;;5027112;28;20046;-57
2023/05/29 11:27:42;;;;;;;12.20;9.63;;;666.20;2124.80;;;;;;5020835;28;20485;-57
2023/05/29 11:30:08;;;;;;;10.82;9.73;;;666.00;2073.60;;;;;;5009590;28;20030;-57
2023/05/29 11:32:36;;;;;;;12.35;10.32;;;666.50;2073.60;;;;;;5009930;28;20014;-72
2023/05/29 11:35:08;;;;;;;10.45;8.85;;;691.40;2099.20;;;;;;5009427;28;20034;-57
2023/05/29 11:37:45;;;;;;;12.45;9.38;;;691.70;2073.60;;;;;;5018126;28;20378;-57
2023/05/29 11:40:12;;;;;;;11.13;9.00;;;691.30;2073.60;;;;;;5019589;28;20054;-70
2023/05/29 11:42:45;;;;;;;10.88;8.75;;;666.20;2022.40;;;;;;5027106;28;20036;-72
2023/05/29 11:45:16;;;;;;;11.68;9.00;;;666.50;2073.60;;;;;;5027205;28;20037;-56
2023/05/29 11:47:51;;;;;;;10.80;8.80;;;691.40;2073.60;;;;;;5026970;28;20021;-65
2023/05/29 11:50:25;;;;;;;11.30;8.77;;;691.70;1996.80;;;;;;5027659;28;20021;-57
2023/05/29 11:52:51;;;;;;;10.07;9.00;;;691.30;1971.20;;;;;;5023281;28;20493;-66
2023/05/29 11:55:21;;;;;;;9.68;8.75;;;665.90;2048.00;;;;;;5027068;28;20056;-57
2023/05/29 11:57:51;;;;;;;13.15;11.52;;;665.60;2099.20;;;;;;5027045;28;20109;-60
2023/05/29 12:00:18;;;;;;;10.23;9.13;;;665.60;2099.20;;;;;;5026044;28;20426;-58
2023/05/29 12:02:49;;;;;;;12.40;9.00;;;640.90;2073.60;;;;;;5027088;28;20526;-63
2023/05/29 12:05:16;;;;;;;10.02;8.57;;;640.90;2124.80;;;;;;5027024;28;20026;-65